EST,Max TemperatureF,Mean TemperatureF,Min TemperatureF,Max Dew PointF,MeanDew PointF,Min DewpointF,Max Humidity, Mean Humidity, Min Humidity, Max Sea Level PressureIn, Mean Sea Level PressureIn, Min Sea Level PressureIn, Max VisibilityMiles, Mean VisibilityMiles, Min VisibilityMiles, Max Wind SpeedMPH, Mean Wind SpeedMPH, Max Gust SpeedMPH,PrecipitationIn, CloudCover, Events, WindDirDegrees
2014-2-1,45,37,29,43,38,25,96,89,75,30.23,30.18,30.13,10,4,1,9,3,13,0.58,8,Rain,50
2014-2-2,66,55,43,54,46,42,100,90,63,30.19,30.13,30.04,10,5,0,9,4,11,0.00,5,Fog,227
2014-2-3,74,65,55,63,58,50,97,83,61,30.15,30.04,29.97,10,8,1,25,9,34,0.00,5,,230
2014-2-4,55,49,43,45,41,39,96,84,68,30.29,30.18,30.09,10,5,1,15,8,20,T,8,,58
2014-2-5,74,59,43,61,46,34,100,80,40,30.11,29.97,29.86,10,6,0,21,9,27,0.06,5,Fog-Rain,248
2014-2-6,51,45,39,37,29,25,70,57,39,30.32,30.24,30.13,10,10,9,20,7,24,0.01,2,Rain,17
2014-2-7,53,43,33,35,32,30,89,69,41,30.35,30.28,30.25,10,9,5,9,3,13,0.00,1,,70
2014-2-8,57,47,36,38,36,33,92,75,47,30.28,30.19,30.12,10,9,6,10,3,15,0.04,2,Rain,66
2014-2-9,65,50,34,44,37,31,100,80,40,30.19,30.12,29.99,10,6,0,16,4,21,0.00,3,Fog,224
2014-2-10,62,50,38,42,38,32,100,69,43,30.17,30.09,30.03,10,9,3,15,5,19,T,4,Rain,358
2014-2-11,45,39,32,36,32,28,92,87,82,30.34,30.26,30.15,10,6,2,16,9,22,0.39,8,Rain,52
2014-2-12,32,30,28,29,27,25,85,85,78,30.32,30.13,29.76,10,4,1,17,13,31,1.07,8,Rain,46
2014-2-13,,,,,,,,,,29.76,29.71,29.63,10,6,2,8,6,,0.15,8,Rain,4
2014-2-14,59,54,48,36,32,30,56,46,33,29.92,29.85,29.72,10,10,10,18,9,22,0.00,0,,227
2014-2-15,55,48,40,45,34,21,86,61,32,30.09,29.81,29.60,10,10,5,25,13,36,0.12,4,Rain,265
2014-2-16,63,51,38,34,26,20,70,46,25,30.15,30.10,30.05,10,10,10,18,6,23,0.00,2,,258
2014-2-17,59,47,34,41,33,28,89,62,36,30.31,30.22,30.16,10,10,7,16,6,21,0.00,1,,88
2014-2-18,74,58,41,51,42,38,93,72,31,30.24,30.17,30.09,10,6,2,10,3,19,T,1,,213
2014-2-19,80,68,56,55,50,43,86,61,26,30.10,30.05,29.99,10,10,10,29,11,36,0.00,0,,229
2014-2-20,83,68,52,61,55,49,89,68,33,30.16,30.09,30.02,10,10,7,20,8,26,0.00,1,,186
2014-2-21,70,57,44,64,56,36,93,77,47,30.05,29.96,29.90,10,8,0,23,9,31,0.93,4,Fog-Rain,231
2014-2-22,66,52,37,43,36,31,85,56,29,30.19,30.12,30.06,10,10,10,14,4,18,0.00,0,,58
2014-2-23,65,53,40,52,44,38,92,73,44,30.12,30.04,29.95,10,10,10,10,3,13,0.00,0,,224
2014-2-24,71,61,51,54,44,32,93,64,25,30.10,30.02,29.93,10,10,7,15,6,20,0.00,1,,289
2014-2-25,73,59,44,49,42,30,93,60,22,30.06,29.98,29.91,10,10,6,22,7,28,0.00,1,,258
2014-2-26,57,48,38,49,42,35,93,85,62,29.90,29.85,29.77,10,7,2,13,4,17,0.41,7,Rain,5
2014-2-27,57,46,34,36,31,22,96,74,25,29.97,29.89,29.84,10,7,0,15,4,21,0.00,2,Fog,257
2014-2-28,57,44,31,35,26,16,85,51,31,30.22,30.14,29.97,10,10,9,16,7,22,0.00,0,,58